sensor_id;sensor_type;location;lat;lon;timestamp;pressure;altitude;pressure_sealevel;temperature;humidity
24230;BME280;12362;50.004;8.006;2023-07-29T00:01:57;99926.41;;;18.35;100.00
24230;BME280;12362;50.004;8.006;2023-07-29T00:04:23;99924.47;;;18.27;100.00
24230;BME280;12362;50.004;8.006;2023-07-29T00:06:49;99930.78;;;18.25;100.00
24230;BME280;12362;50.004;8.006;2023-07-29T00:09:14;99926.38;;;18.26;100.00
24230;BME280;12362;50.004;8.006;2023-07-29T00:11:39;99926.66;;;18.23;100.00
24230;BME280;12362;50.004;8.006;2023-07-29T00:14:05;99923.19;;;18.22;100.00
24230;BME280;12362;50.004;8.006;2023-07-29T00:16:30;99922.31;;;18.22;100.00
24230;BME280;12362;50.004;8.006;2023-07-29T00:18:56;99923.44;;;18.19;100.00
24230;BME280;12362;50.004;8.006;2023-07-29T00:21:22;99929.84;;;18.26;100.00
24230;BME280;12362;50.004;8.006;2023-07-29T00:23:47;99921.25;;;18.24;100.00
24230;BME280;12362;50.004;8.006;2023-07-29T00:26:13;99924.72;;;18.25;100.00
24230;BME280;12362;50.004;8.006;2023-07-29T00:28:38;99920.16;;;18.27;100.00
24230;BME280;12362;50.004;8.006;2023-07-29T00:31:04;99919.84;;;18.20;100.00
24230;BME280;12362;50.004;8.006;2023-07-29T00:33:29;99917.59;;;18.16;100.00
24230;BME280;12362;50.004;8.006;2023-07-29T00:35:55;99916.91;;;18.14;100.00
24230;BME280;12362;50.004;8.006;2023-07-29T00:38:20;99911.50;;;18.06;100.00
24230;BME280;12362;50.004;8.006;2023-07-29T00:40:46;99903.88;;;18.03;100.00
24230;BME280;12362;50.004;8.006;2023-07-29T00:43:11;99899.19;;;18.06;100.00
24230;BME280;12362;50.004;8.006;2023-07-29T00:45:38;99903.47;;;18.07;100.00
24230;BME280;12362;50.004;8.006;2023-07-29T00:48:06;99896.16;;;18.11;100.00
24230;BME280;12362;50.004;8.006;2023-07-29T00:50:32;99893.63;;;18.00;100.00
24230;BME280;12362;50.004;8.006;2023-07-29T00:52:59;99881.28;;;17.91;100.00
24230;BME280;12362;50.004;8.006;2023-07-29T00:55:25;99878.22;;;17.86;100.00
24230;BME280;12362;50.004;8.006;2023-07-29T00:57:52;99869.38;;;17.87;100.00
24230;BME280;12362;50.004;8.006;2023-07-29T01:00:20;99874.78;;;17.85;100.00
24230;BME280;12362;50.004;8.006;2023-07-29T01:02:46;99881.81;;;17.85;100.00
24230;BME280;12362;50.004;8.006;2023-07-29T01:05:16;99871.28;;;17.85;100.00
24230;BME280;12362;50.004;8.006;2023-07-29T01:08:11;99871.69;;;17.80;100.00
24230;BME280;12362;50.004;8.006;2023-07-29T01:11:18;99880.44;;;17.81;100.00
24230;BME280;12362;50.004;8.006;2023-07-29T01:13:54;99882.38;;;17.88;100.00
24230;BME280;12362;50.004;8.006;2023-07-29T01:16:34;99885.97;;;17.87;100.00
24230;BME280;12362;50.004;8.006;2023-07-29T01:19:06;99884.53;;;17.74;100.00
24230;BME280;12362;50.004;8.006;2023-07-29T01:21:35;99881.19;;;17.62;100.00
24230;BME280;12362;50.004;8.006;2023-07-29T01:24:00;99877.69;;;17.62;100.00
24230;BME280;12362;50.004;8.006;2023-07-29T01:26:26;99884.22;;;17.67;100.00
24230;BME280;12362;50.004;8.006;2023-07-29T01:28:56;99873.91;;;17.75;100.00
24230;BME280;12362;50.004;8.006;2023-07-29T01:31:30;99870.88;;;17.80;100.00
24230;BME280;12362;50.004;8.006;2023-07-29T01:34:10;99866.34;;;17.82;100.00
24230;BME280;12362;50.004;8.006;2023-07-29T01:36:41;99870.59;;;17.83;100.00
24230;BME280;12362;50.004;8.006;2023-07-29T01:39:07;99866.34;;;17.82;100.00
24230;BME280;12362;50.004;8.006;2023-07-29T01:41:34;99866.91;;;17.85;100.00
24230;BME280;12362;50.004;8.006;2023-07-29T01:44:01;99863.97;;;17.88;100.00
24230;BME280;12362;50.004;8.006;2023-07-29T01:46:27;99870.47;;;17.84;100.00
24230;BME280;12362;50.004;8.006;2023-07-29T01:48:52;99878.91;;;17.88;100.00
24230;BME280;12362;50.004;8.006;2023-07-29T01:51:19;99872.56;;;17.90;100.00
24230;BME280;12362;50.004;8.006;2023-07-29T01:53:44;99872.69;;;17.89;100.00
24230;BME280;12362;50.004;8.006;2023-07-29T01:56:10;99878.81;;;17.99;100.00
24230;BME280;12362;50.004;8.006;2023-07-29T01:58:39;99873.16;;;18.03;100.00
24230;BME280;12362;50.004;8.006;2023-07-29T02:01:05;99874.97;;;18.03;100.00
24230;BME280;12362;50.004;8.006;2023-07-29T02:03:30;99862.53;;;18.05;100.00
24230;BME280;12362;50.004;8.006;2023-07-29T02:05:56;99863.50;;;18.04;100.00
24230;BME280;12362;50.004;8.006;2023-07-29T02:08:21;99861.97;;;18.11;100.00
24230;BME280;12362;50.004;8.006;2023-07-29T02:10:47;99858.94;;;18.15;100.00
24230;BME280;12362;50.004;8.006;2023-07-29T02:13:14;99857.56;;;18.21;100.00
24230;BME280;12362;50.004;8.006;2023-07-29T02:15:39;99856.22;;;18.26;100.00
24230;BME280;12362;50.004;8.006;2023-07-29T02:18:05;99850.00;;;18.27;100.00
24230;BME280;12362;50.004;8.006;2023-07-29T02:20:31;99862.06;;;18.29;100.00
24230;BME280;12362;50.004;8.006;2023-07-29T02:22:57;99850.28;;;18.33;100.00
24230;BME280;12362;50.004;8.006;2023-07-29T02:25:22;99849.59;;;18.31;100.00
24230;BME280;12362;50.004;8.006;2023-07-29T02:27:48;99834.53;;;18.33;100.00
24230;BME280;12362;50.004;8.006;2023-07-29T02:30:13;99838.00;;;18.34;100.00
24230;BME280;12362;50.004;8.006;2023-07-29T02:32:39;99841.59;;;18.33;100.00
24230;BME280;12362;50.004;8.006;2023-07-29T02:35:05;99841.28;;;18.36;100.00
24230;BME280;12362;50.004;8.006;2023-07-29T02:37:31;99830.66;;;18.37;100.00
24230;BME280;12362;50.004;8.006;2023-07-29T02:39:56;99834.00;;;18.39;100.00
24230;BME280;12362;50.004;8.006;2023-07-29T02:42:22;99820.44;;;18.44;100.00
24230;BME280;12362;50.004;8.006;2023-07-29T02:44:47;99816.69;;;18.46;100.00
24230;BME280;12362;50.004;8.006;2023-07-29T02:47:12;99812.28;;;18.47;100.00
24230;BME280;12362;50.004;8.006;2023-07-29T02:49:38;99821.25;;;18.44;100.00
24230;BME280;12362;50.004;8.006;2023-07-29T02:52:04;99821.78;;;18.48;100.00
24230;BME280;12362;50.004;8.006;2023-07-29T02:54:30;99816.41;;;18.49;100.00
24230;BME280;12362;50.004;8.006;2023-07-29T02:56:55;99816.25;;;18.51;100.00
24230;BME280;12362;50.004;8.006;2023-07-29T02:59:21;99817.22;;;18.50;100.00
24230;BME280;12362;50.004;8.006;2023-07-29T03:01:47;99804.09;;;18.50;100.00
24230;BME280;12362;50.004;8.006;2023-07-29T03:04:12;99801.44;;;18.50;100.00
24230;BME280;12362;50.004;8.006;2023-07-29T03:06:41;99805.63;;;18.52;100.00
24230;BME280;12362;50.004;8.006;2023-07-29T03:09:06;99798.56;;;18.53;100.00
24230;BME280;12362;50.004;8.006;2023-07-29T03:11:31;99800.38;;;18.52;100.00
24230;BME280;12362;50.004;8.006;2023-07-29T03:13:57;99809.63;;;18.56;100.00
24230;BME280;12362;50.004;8.006;2023-07-29T03:16:23;99809.06;;;18.62;100.00
24230;BME280;12362;50.004;8.006;2023-07-29T03:18:53;99817.38;;;18.67;100.00
24230;BME280;12362;50.004;8.006;2023-07-29T03:21:18;99811.13;;;18.68;100.00
24230;BME280;12362;50.004;8.006;2023-07-29T03:23:44;99806.84;;;18.67;100.00
24230;BME280;12362;50.004;8.006;2023-07-29T03:26:09;99804.09;;;18.69;100.00
24230;BME280;12362;50.004;8.006;2023-07-29T03:28:38;99813.75;;;18.68;100.00
24230;BME280;12362;50.004;8.006;2023-07-29T03:31:03;99802.69;;;18.65;100.00
24230;BME280;12362;50.004;8.006;2023-07-29T03:33:29;99800.50;;;18.70;100.00
24230;BME280;12362;50.004;8.006;2023-07-29T03:35:55;99794.25;;;18.71;100.00
24230;BME280;12362;50.004;8.006;2023-07-29T03:38:20;99788.84;;;18.72;100.00
24230;BME280;12362;50.004;8.006;2023-07-29T03:40:46;99787.34;;;18.70;100.00
24230;BME280;12362;50.004;8.006;2023-07-29T03:43:12;99783.31;;;18.66;100.00
24230;BME280;12362;50.004;8.006;2023-07-29T03:45:38;99776.81;;;18.60;100.00
24230;BME280;12362;50.004;8.006;2023-07-29T03:48:04;99790.81;;;18.51;100.00
24230;BME280;12362;50.004;8.006;2023-07-29T03:50:30;99790.81;;;18.51;100.00
24230;BME280;12362;50.004;8.006;2023-07-29T03:52:56;99784.59;;;18.52;100.00
24230;BME280;12362;50.004;8.006;2023-07-29T03:55:22;99791.47;;;18.53;100.00
24230;BME280;12362;50.004;8.006;2023-07-29T03:57:47;99784.97;;;18.57;100.00
24230;BME280;12362;50.004;8.006;2023-07-29T04:00:13;99779.59;;;18.59;100.00
24230;BME280;12362;50.004;8.006;2023-07-29T04:02:42;99782.09;;;18.60;100.00
24230;BME280;12362;50.004;8.006;2023-07-29T04:05:08;99790.38;;;18.65;100.00
24230;BME280;12362;50.004;8.006;2023-07-29T04:07:35;99794.38;;;18.69;100.00
24230;BME280;12362;50.004;8.006;2023-07-29T04:10:01;99790.50;;;18.73;100.00
24230;BME280;12362;50.004;8.006;2023-07-29T04:12:27;99791.34;;;18.74;100.00
24230;BME280;12362;50.004;8.006;2023-07-29T04:14:52;99784.81;;;18.78;100.00
24230;BME280;12362;50.004;8.006;2023-07-29T04:17:18;99790.78;;;18.70;100.00
24230;BME280;12362;50.004;8.006;2023-07-29T04:19:43;99781.50;;;18.66;100.00
24230;BME280;12362;50.004;8.006;2023-07-29T04:22:09;99791.47;;;18.72;100.00
24230;BME280;12362;50.004;8.006;2023-07-29T04:24:34;99789.25;;;18.77;100.00
24230;BME280;12362;50.004;8.006;2023-07-29T04:27:00;99788.69;;;18.83;100.00
24230;BME280;12362;50.004;8.006;2023-07-29T04:29:25;99795.47;;;18.86;100.00
24230;BME280;12362;50.004;8.006;2023-07-29T04:31:51;99788.97;;;18.90;100.00
24230;BME280;12362;50.004;8.006;2023-07-29T04:34:17;99790.47;;;18.92;100.00
24230;BME280;12362;50.004;8.006;2023-07-29T04:36:43;99790.34;;;18.94;100.00
24230;BME280;12362;50.004;8.006;2023-07-29T04:39:09;99798.63;;;18.99;100.00
24230;BME280;12362;50.004;8.006;2023-07-29T04:41:34;99789.22;;;19.06;100.00
24230;BME280;12362;50.004;8.006;2023-07-29T04:44:00;99783.25;;;19.13;100.00
24230;BME280;12362;50.004;8.006;2023-07-29T04:46:25;99782.84;;;19.18;100.00
24230;BME280;12362;50.004;8.006;2023-07-29T04:48:51;99771.72;;;19.23;100.00
24230;BME280;12362;50.004;8.006;2023-07-29T04:51:16;99770.06;;;19.22;100.00
24230;BME280;12362;50.004;8.006;2023-07-29T04:53:42;99766.28;;;19.34;100.00
24230;BME280;12362;50.004;8.006;2023-07-29T04:56:07;99773.72;;;19.39;100.00
24230;BME280;12362;50.004;8.006;2023-07-29T04:58:33;99770.13;;;19.40;100.00
24230;BME280;12362;50.004;8.006;2023-07-29T05:01:01;99765.50;;;19.51;100.00
24230;BME280;12362;50.004;8.006;2023-07-29T05:03:27;99762.28;;;19.57;100.00
24230;BME280;12362;50.004;8.006;2023-07-29T05:05:52;99763.38;;;19.64;100.00
24230;BME280;12362;50.004;8.006;2023-07-29T05:08:21;99777.19;;;19.66;100.00
24230;BME280;12362;50.004;8.006;2023-07-29T05:10:50;99780.72;;;19.57;100.00
24230;BME280;12362;50.004;8.006;2023-07-29T05:13:16;99778.63;;;19.61;100.00
24230;BME280;12362;50.004;8.006;2023-07-29T05:15:42;99782.78;;;19.63;100.00
24230;BME280;12362;50.004;8.006;2023-07-29T05:18:08;99777.88;;;19.68;100.00
24230;BME280;12362;50.004;8.006;2023-07-29T05:20:33;99785.94;;;19.67;100.00
24230;BME280;12362;50.004;8.006;2023-07-29T05:22:59;99786.75;;;19.67;100.00
24230;BME280;12362;50.004;8.006;2023-07-29T05:25:24;99782.63;;;19.65;100.00
24230;BME280;12362;50.004;8.006;2023-07-29T05:27:50;99783.88;;;19.61;100.00
24230;BME280;12362;50.004;8.006;2023-07-29T05:30:15;99789.16;;;19.61;100.00
24230;BME280;12362;50.004;8.006;2023-07-29T05:32:41;99782.78;;;19.63;100.00
24230;BME280;12362;50.004;8.006;2023-07-29T05:35:07;99786.09;;;19.65;100.00
24230;BME280;12362;50.004;8.006;2023-07-29T05:37:32;99795.78;;;19.65;100.00
24230;BME280;12362;50.004;8.006;2023-07-29T05:39:58;99813.72;;;19.61;100.00
24230;BME280;12362;50.004;8.006;2023-07-29T05:42:24;99808.03;;;19.56;100.00
24230;BME280;12362;50.004;8.006;2023-07-29T05:44:50;99809.59;;;19.49;100.00
24230;BME280;12362;50.004;8.006;2023-07-29T05:47:18;99799.06;;;19.49;100.00
24230;BME280;12362;50.004;8.006;2023-07-29T05:49:44;99797.13;;;19.51;100.00
24230;BME280;12362;50.004;8.006;2023-07-29T05:52:09;99785.47;;;19.54;100.00
24230;BME280;12362;50.004;8.006;2023-07-29T05:54:35;99793.19;;;19.55;100.00
24230;BME280;12362;50.004;8.006;2023-07-29T05:57:00;99811.38;;;19.49;100.00
24230;BME280;12362;50.004;8.006;2023-07-29T05:59:26;99807.13;;;19.48;100.00
24230;BME280;12362;50.004;8.006;2023-07-29T06:01:55;99801.84;;;19.48;100.00
24230;BME280;12362;50.004;8.006;2023-07-29T06:04:20;99802.38;;;19.51;100.00
24230;BME280;12362;50.004;8.006;2023-07-29T06:06:45;99798.78;;;19.52;100.00
24230;BME280;12362;50.004;8.006;2023-07-29T06:09:11;99796.16;;;19.52;100.00
24230;BME280;12362;50.004;8.006;2023-07-29T06:11:36;99785.63;;;19.52;100.00
24230;BME280;12362;50.004;8.006;2023-07-29T06:14:02;99759.03;;;19.46;100.00
24230;BME280;12362;50.004;8.006;2023-07-29T06:16:27;99770.34;;;19.56;100.00
24230;BME280;12362;50.004;8.006;2023-07-29T06:18:53;99766.56;;;19.58;100.00
24230;BME280;12362;50.004;8.006;2023-07-29T06:21:19;99758.91;;;19.65;100.00
24230;BME280;12362;50.004;8.006;2023-07-29T06:23:46;99772.09;;;19.65;100.00
24230;BME280;12362;50.004;8.006;2023-07-29T06:26:11;99795.78;;;19.65;100.00
24230;BME280;12362;50.004;8.006;2023-07-29T06:28:37;99814.00;;;19.58;100.00
24230;BME280;12362;50.004;8.006;2023-07-29T06:31:02;99824.00;;;19.55;100.00
24230;BME280;12362;50.004;8.006;2023-07-29T06:33:28;99836.50;;;19.43;100.00
24230;BME280;12362;50.004;8.006;2023-07-29T06:35:53;99827.94;;;19.41;100.00
24230;BME280;12362;50.004;8.006;2023-07-29T06:38:19;99789.28;;;19.32;100.00
24230;BME280;12362;50.004;8.006;2023-07-29T06:40:50;99766.38;;;19.42;100.00
24230;BME280;12362;50.004;8.006;2023-07-29T06:43:16;99794.34;;;19.43;100.00
24230;BME280;12362;50.004;8.006;2023-07-29T06:45:42;99803.63;;;19.47;100.00
24230;BME280;12362;50.004;8.006;2023-07-29T06:48:07;99821.78;;;19.50;100.00
24230;BME280;12362;50.004;8.006;2023-07-29T06:50:33;99827.75;;;19.52;100.00
24230;BME280;12362;50.004;8.006;2023-07-29T06:52:58;99840.06;;;19.52;100.00
24230;BME280;12362;50.004;8.006;2023-07-29T06:55:24;99836.28;;;19.64;100.00
24230;BME280;12362;50.004;8.006;2023-07-29T06:57:49;99837.25;;;19.63;100.00
24230;BME280;12362;50.004;8.006;2023-07-29T07:00:15;99834.16;;;19.77;100.00
24230;BME280;12362;50.004;8.006;2023-07-29T07:02:40;99829.81;;;19.85;100.00
24230;BME280;12362;50.004;8.006;2023-07-29T07:05:07;99845.13;;;19.72;100.00
24230;BME280;12362;50.004;8.006;2023-07-29T07:07:32;99842.34;;;19.74;100.00
24230;BME280;12362;50.004;8.006;2023-07-29T07:09:58;99841.56;;;19.64;100.00
24230;BME280;12362;50.004;8.006;2023-07-29T07:12:23;99839.63;;;19.66;100.00
24230;BME280;12362;50.004;8.006;2023-07-29T07:14:49;99845.16;;;19.63;100.00
24230;BME280;12362;50.004;8.006;2023-07-29T07:17:14;99846.78;;;19.73;100.00
24230;BME280;12362;50.004;8.006;2023-07-29T07:19:40;99836.94;;;19.75;100.00
24230;BME280;12362;50.004;8.006;2023-07-29T07:22:05;99844.38;;;19.89;100.00
24230;BME280;12362;50.004;8.006;2023-07-29T07:24:31;99827.69;;;19.98;100.00
24230;BME280;12362;50.004;8.006;2023-07-29T07:26:56;99834.28;;;20.12;100.00
24230;BME280;12362;50.004;8.006;2023-07-29T07:29:22;99823.66;;;20.21;100.00
24230;BME280;12362;50.004;8.006;2023-07-29T07:31:52;99830.69;;;20.47;100.00
24230;BME280;12362;50.004;8.006;2023-07-29T07:34:19;99833.44;;;20.90;100.00
24230;BME280;12362;50.004;8.006;2023-07-29T07:36:45;99840.69;;;21.64;100.00
24230;BME280;12362;50.004;8.006;2023-07-29T07:39:11;99835.75;;;22.92;100.00
24230;BME280;12362;50.004;8.006;2023-07-29T07:41:36;99838.56;;;23.06;100.00
24230;BME280;12362;50.004;8.006;2023-07-29T07:44:02;99838.72;;;22.65;100.00
24230;BME280;12362;50.004;8.006;2023-07-29T07:46:28;99848.16;;;22.10;100.00
24230;BME280;12362;50.004;8.006;2023-07-29T07:48:53;99847.47;;;22.41;100.00
24230;BME280;12362;50.004;8.006;2023-07-29T07:51:19;99847.50;;;22.08;100.00
24230;BME280;12362;50.004;8.006;2023-07-29T07:53:44;99840.81;;;21.88;100.00
24230;BME280;12362;50.004;8.006;2023-07-29T07:56:10;99844.03;;;21.66;100.00
24230;BME280;12362;50.004;8.006;2023-07-29T07:58:35;99838.75;;;21.74;100.00
24230;BME280;12362;50.004;8.006;2023-07-29T08:01:05;99827.72;;;21.79;100.00
24230;BME280;12362;50.004;8.006;2023-07-29T08:03:43;99822.03;;;21.66;100.00
24230;BME280;12362;50.004;8.006;2023-07-29T08:06:08;99821.31;;;21.89;100.00
24230;BME280;12362;50.004;8.006;2023-07-29T08:08:34;99826.63;;;23.18;100.00
24230;BME280;12362;50.004;8.006;2023-07-29T08:11:00;99818.38;;;23.75;100.00
24230;BME280;12362;50.004;8.006;2023-07-29T08:13:25;99831.22;;;23.48;100.00
24230;BME280;12362;50.004;8.006;2023-07-29T08:15:52;99835.91;;;23.22;100.00
24230;BME280;12362;50.004;8.006;2023-07-29T08:18:18;99836.41;;;23.25;100.00
24230;BME280;12362;50.004;8.006;2023-07-29T08:20:57;99825.31;;;23.84;100.00
24230;BME280;12362;50.004;8.006;2023-07-29T08:23:26;99826.59;;;23.96;100.00
24230;BME280;12362;50.004;8.006;2023-07-29T08:25:53;99818.22;;;23.85;100.00
24230;BME280;12362;50.004;8.006;2023-07-29T08:28:19;99823.16;;;24.18;100.00
24230;BME280;12362;50.004;8.006;2023-07-29T08:30:45;99810.75;;;24.41;100.00
24230;BME280;12362;50.004;8.006;2023-07-29T08:33:10;99819.88;;;23.70;100.00
24230;BME280;12362;50.004;8.006;2023-07-29T08:35:36;99827.63;;;23.33;100.00
24230;BME280;12362;50.004;8.006;2023-07-29T08:38:02;99814.69;;;23.38;100.00
24230;BME280;12362;50.004;8.006;2023-07-29T08:40:29;99827.00;;;23.15;100.00
24230;BME280;12362;50.004;8.006;2023-07-29T08:42:58;99813.72;;;22.99;100.00
24230;BME280;12362;50.004;8.006;2023-07-29T08:45:25;99819.88;;;23.15;100.00
24230;BME280;12362;50.004;8.006;2023-07-29T08:47:54;99817.72;;;22.87;100.00
24230;BME280;12362;50.004;8.006;2023-07-29T08:50:23;99820.81;;;22.98;100.00
24230;BME280;12362;50.004;8.006;2023-07-29T08:52:51;99813.78;;;24.60;100.00
24230;BME280;12362;50.004;8.006;2023-07-29T08:55:18;99813.00;;;24.29;100.00
24230;BME280;12362;50.004;8.006;2023-07-29T08:57:44;99808.91;;;25.08;100.00
24230;BME280;12362;50.004;8.006;2023-07-29T09:00:11;99811.34;;;24.95;100.00
24230;BME280;12362;50.004;8.006;2023-07-29T09:02:38;99823.09;;;24.34;100.00
24230;BME280;12362;50.004;8.006;2023-07-29T09:05:03;99822.34;;;23.71;100.00
24230;BME280;12362;50.004;8.006;2023-07-29T09:07:30;99820.88;;;23.77;100.00
24230;BME280;12362;50.004;8.006;2023-07-29T09:09:57;99823.25;;;23.56;100.00
24230;BME280;12362;50.004;8.006;2023-07-29T09:12:23;99824.75;;;24.04;100.00
24230;BME280;12362;50.004;8.006;2023-07-29T09:14:51;99822.16;;;24.19;100.00
24230;BME280;12362;50.004;8.006;2023-07-29T09:17:18;99826.34;;;24.13;100.00
24230;BME280;12362;50.004;8.006;2023-07-29T09:19:50;99834.47;;;23.74;100.00
24230;BME280;12362;50.004;8.006;2023-07-29T09:22:22;99835.91;;;23.38;100.00
24230;BME280;12362;50.004;8.006;2023-07-29T09:24:47;99836.94;;;23.13;100.00
24230;BME280;12362;50.004;8.006;2023-07-29T09:27:28;99838.03;;;23.34;100.00
24230;BME280;12362;50.004;8.006;2023-07-29T09:29:57;99826.84;;;23.71;100.00
24230;BME280;12362;50.004;8.006;2023-07-29T09:32:24;99823.16;;;24.93;100.00
24230;BME280;12362;50.004;8.006;2023-07-29T09:34:50;99816.69;;;25.76;100.00
24230;BME280;12362;50.004;8.006;2023-07-29T09:37:25;99802.63;;;26.46;100.00
24230;BME280;12362;50.004;8.006;2023-07-29T09:39:52;99785.31;;;27.32;100.00
24230;BME280;12362;50.004;8.006;2023-07-29T09:42:19;99790.03;;;27.02;100.00
24230;BME280;12362;50.004;8.006;2023-07-29T09:44:45;99789.00;;;26.55;100.00
24230;BME280;12362;50.004;8.006;2023-07-29T09:47:22;99783.72;;;26.62;100.00
24230;BME280;12362;50.004;8.006;2023-07-29T09:49:48;99779.28;;;26.12;100.00
24230;BME280;12362;50.004;8.006;2023-07-29T09:52:16;99789.03;;;25.76;100.00
24230;BME280;12362;50.004;8.006;2023-07-29T09:54:43;99786.38;;;25.76;100.00
24230;BME280;12362;50.004;8.006;2023-07-29T09:57:09;99793.66;;;25.54;100.00
24230;BME280;12362;50.004;8.006;2023-07-29T09:59:35;99817.94;;;24.99;100.00
24230;BME280;12362;50.004;8.006;2023-07-29T10:02:00;99834.44;;;24.50;100.00
24230;BME280;12362;50.004;8.006;2023-07-29T10:04:26;99824.66;;;23.82;100.00
24230;BME280;12362;50.004;8.006;2023-07-29T10:06:52;99829.66;;;23.69;100.00
24230;BME280;12362;50.004;8.006;2023-07-29T10:09:19;99829.72;;;23.53;100.00
24230;BME280;12362;50.004;8.006;2023-07-29T10:11:45;99832.44;;;22.90;100.00
24230;BME280;12362;50.004;8.006;2023-07-29T10:14:11;99822.34;;;22.61;100.00
24230;BME280;12362;50.004;8.006;2023-07-29T10:16:39;99814.88;;;23.04;100.00
24230;BME280;12362;50.004;8.006;2023-07-29T10:19:07;99808.25;;;23.24;100.00
24230;BME280;12362;50.004;8.006;2023-07-29T10:21:33;99819.88;;;23.07;100.00
24230;BME280;12362;50.004;8.006;2023-07-29T10:24:01;99819.41;;;23.66;100.00
24230;BME280;12362;50.004;8.006;2023-07-29T10:26:29;99809.00;;;25.52;100.00
24230;BME280;12362;50.004;8.006;2023-07-29T10:28:59;99811.91;;;26.98;100.00
24230;BME280;12362;50.004;8.006;2023-07-29T10:31:30;99798.16;;;27.76;100.00
24230;BME280;12362;50.004;8.006;2023-07-29T10:33:56;99784.84;;;27.22;100.00
24230;BME280;12362;50.004;8.006;2023-07-29T10:36:22;99794.94;;;26.78;100.00
24230;BME280;12362;50.004;8.006;2023-07-29T10:38:51;99778.44;;;27.16;100.00
24230;BME280;12362;50.004;8.006;2023-07-29T10:41:22;99794.28;;;25.99;100.00
24230;BME280;12362;50.004;8.006;2023-07-29T10:44:45;99795.41;;;25.32;100.00
24230;BME280;12362;50.004;8.006;2023-07-29T10:46:45;99795.31;;;25.26;100.00
24230;BME280;12362;50.004;8.006;2023-07-29T10:49:11;99803.97;;;24.83;100.00
24230;BME280;12362;50.004;8.006;2023-07-29T10:51:37;99805.28;;;24.87;100.00
24230;BME280;12362;50.004;8.006;2023-07-29T10:54:11;99799.09;;;24.72;100.00
24230;BME280;12362;50.004;8.006;2023-07-29T10:56:40;99800.13;;;24.49;100.00
24230;BME280;12362;50.004;8.006;2023-07-29T11:01:40;99786.50;;;25.54;100.00
24230;BME280;12362;50.004;8.006;2023-07-29T11:07:18;99752.41;;;26.91;100.00
24230;BME280;12362;50.004;8.006;2023-07-29T11:12:51;99762.69;;;27.21;100.00
24230;BME280;12362;50.004;8.006;2023-07-29T11:15:18;99784.53;;;26.62;100.00
24230;BME280;12362;50.004;8.006;2023-07-29T11:17:51;99765.91;;;27.44;100.00
24230;BME280;12362;50.004;8.006;2023-07-29T11:25:33;99767.34;;;27.13;100.00
24230;BME280;12362;50.004;8.006;2023-07-29T11:28:01;99760.34;;;27.79;100.00
24230;BME280;12362;50.004;8.006;2023-07-29T11:30:27;99756.50;;;27.82;100.00
24230;BME280;12362;50.004;8.006;2023-07-29T11:32:54;99752.56;;;29.15;100.00
24230;BME280;12362;50.004;8.006;2023-07-29T11:35:21;99748.03;;;29.92;100.00
24230;BME280;12362;50.004;8.006;2023-07-29T11:37:48;99752.25;;;28.13;100.00
24230;BME280;12362;50.004;8.006;2023-07-29T11:40:19;99753.41;;;28.77;100.00
24230;BME280;12362;50.004;8.006;2023-07-29T11:42:50;99745.38;;;28.64;100.00
24230;BME280;12362;50.004;8.006;2023-07-29T11:45:17;99735.09;;;29.13;100.00
24230;BME280;12362;50.004;8.006;2023-07-29T11:47:43;99734.28;;;29.19;100.00
24230;BME280;12362;50.004;8.006;2023-07-29T11:50:10;99732.19;;;29.14;100.00
24230;BME280;12362;50.004;8.006;2023-07-29T11:52:36;99728.03;;;29.38;80.52
24230;BME280;12362;50.004;8.006;2023-07-29T11:55:04;99720.91;;;28.80;100.00
24230;BME280;12362;50.004;8.006;2023-07-29T11:57:33;99729.97;;;27.80;100.00
24230;BME280;12362;50.004;8.006;2023-07-29T12:00:02;99722.75;;;28.28;100.00
24230;BME280;12362;50.004;8.006;2023-07-29T12:02:36;99723.97;;;28.45;93.11
24230;BME280;12362;50.004;8.006;2023-07-29T12:05:03;99716.16;;;29.08;95.44
24230;BME280;12362;50.004;8.006;2023-07-29T12:07:29;99717.97;;;29.33;100.00
24230;BME280;12362;50.004;8.006;2023-07-29T12:09:55;99719.03;;;29.13;100.00
24230;BME280;12362;50.004;8.006;2023-07-29T12:12:22;99716.81;;;28.71;89.55
24230;BME280;12362;50.004;8.006;2023-07-29T12:14:48;99721.78;;;27.82;91.37
24230;BME280;12362;50.004;8.006;2023-07-29T12:17:14;99716.91;;;27.52;100.00
24230;BME280;12362;50.004;8.006;2023-07-29T12:19:40;99723.13;;;26.97;100.00
24230;BME280;12362;50.004;8.006;2023-07-29T12:22:07;99727.75;;;27.10;100.00
24230;BME280;12362;50.004;8.006;2023-07-29T12:24:35;99729.91;;;26.73;100.00
24230;BME280;12362;50.004;8.006;2023-07-29T12:27:01;99741.41;;;26.31;100.00
24230;BME280;12362;50.004;8.006;2023-07-29T12:29:26;99733.25;;;25.97;100.00
24230;BME280;12362;50.004;8.006;2023-07-29T12:32:01;99729.53;;;26.34;100.00
24230;BME280;12362;50.004;8.006;2023-07-29T12:34:27;99735.22;;;26.45;100.00
24230;BME280;12362;50.004;8.006;2023-07-29T12:36:54;99736.66;;;26.48;100.00
24230;BME280;12362;50.004;8.006;2023-07-29T12:39:27;99740.25;;;26.40;100.00
24230;BME280;12362;50.004;8.006;2023-07-29T12:41:54;99734.63;;;26.50;100.00
24230;BME280;12362;50.004;8.006;2023-07-29T12:44:20;99730.78;;;26.79;100.00
24230;BME280;12362;50.004;8.006;2023-07-29T12:46:47;99737.75;;;26.80;100.00
24230;BME280;12362;50.004;8.006;2023-07-29T12:49:13;99737.09;;;26.30;100.00
24230;BME280;12362;50.004;8.006;2023-07-29T12:51:38;99743.44;;;25.94;100.00
24230;BME280;12362;50.004;8.006;2023-07-29T12:54:04;99747.34;;;25.77;100.00
24230;BME280;12362;50.004;8.006;2023-07-29T12:56:31;99748.50;;;25.89;100.00
24230;BME280;12362;50.004;8.006;2023-07-29T12:59:00;99747.66;;;26.66;100.00
24230;BME280;12362;50.004;8.006;2023-07-29T13:01:26;99737.81;;;26.87;100.00
24230;BME280;12362;50.004;8.006;2023-07-29T13:03:52;99738.91;;;26.44;100.00